Portada
METAR-TAF:

METAR-TAF

Aeroports :

Aeroport Internacional de Dallas/Fort Worth

Dallas-Fort Worth, Texas, Estats Units d'Amèrica

latitud: 32-53-49N, longitud: 097-01-19W, altitud: 183 m

Observació

L'informe es va fer fa 54 minuts, a les 14:53 UTC
Vent 3 kt del Sud-Est
Temperatura 16°C
Humitat 68%
Pressió 1024 hPa
Visibilitat: 16.1 km
Escasses núvols a una alçada de 9500 ft
Cel ennuvolat a una alçada de 14000 ft
Cel ennuvolat a una alçada de 25000 ft

METAR: KDFW 231453Z 14003KT 10SM FEW095 BKN140 BKN250 16/10 A3023 RMK AO2 SLP233 T01610100 52015

Hora: 10:47 (15:47 UTC)

Pronòstic

L'informe es va fer fa 56 minuts, a les 14:51 UTC
Pronòstic vàlid del 23 a les 15 UTC al 24 a les 18 UTC
Vent 7 kt del Est/Nord-Est
Visibilitat: 10 km
Cel ennuvolat a una alçada de 10000 ft
A partir de les 24 a les 1500 UTC
Vent 8 kt del Nord-Est
Visibilitat: 10 km
Cel cobert a una alçada de 5000 ft
pluja

TAF: KDFW 231451Z 2315/2418 06007KT P6SM BKN100 FM241500 05008KT P6SM -RA OVC050

Observacions i pronòstics meteorològics de més de 4000 aeroports (METAR i TAF).

Les estacions disponibles són els punts grocs i vermells al mapa.

Posi el ratolí al punt desitjat per veure el nom de l'estació.

Feu clic per veure les observacions i els pronòstics meteorològics.

Per canviar el mapa: feu clic els botons verds amb una creu de color negre per apropar; al botó verd amb un guió per allunyar la imatge; o en les fletxes verdes per a mapes adjacents.


METAR-TAF: